createdAt,value
2018-07-16T00:00:33.370Z,4.00
2018-07-16T00:01:33.322Z,4.00
2018-07-16T00:02:33.343Z,4.00
2018-07-16T00:03:33.356Z,4.00
2018-07-16T00:04:33.378Z,4.00
2018-07-16T00:05:33.394Z,4.00
2018-07-16T00:06:33.424Z,4.00
2018-07-16T00:07:33.432Z,4.00
2018-07-16T00:08:33.440Z,4.00
2018-07-16T00:09:33.461Z,4.00
2018-07-16T00:10:33.472Z,4.00
2018-07-16T00:11:33.492Z,4.00
2018-07-16T00:12:33.590Z,4.00
2018-07-16T00:13:33.529Z,4.00
2018-07-16T00:14:33.591Z,4.00
2018-07-16T00:15:33.557Z,4.00
2018-07-16T00:16:33.578Z,4.00
2018-07-16T00:17:33.590Z,4.00
2018-07-16T00:18:33.639Z,4.00
2018-07-16T00:19:33.629Z,4.00
2018-07-16T00:20:33.641Z,4.00
2018-07-16T00:21:33.710Z,4.00
2018-07-16T00:22:33.674Z,4.00
2018-07-16T00:23:33.696Z,4.00
2018-07-16T00:24:33.707Z,4.00
2018-07-16T00:25:33.723Z,4.00
2018-07-16T00:26:33.741Z,4.00
2018-07-16T00:27:33.759Z,4.00
2018-07-16T00:28:33.775Z,4.00
2018-07-16T00:29:33.796Z,4.00
2018-07-16T00:30:33.808Z,4.00
2018-07-16T00:31:33.826Z,4.00
2018-07-16T00:32:33.848Z,4.00
2018-07-16T00:33:33.862Z,4.00
2018-07-16T00:34:33.881Z,4.00
2018-07-16T00:35:33.901Z,4.00
2018-07-16T00:36:33.914Z,4.00
2018-07-16T00:37:33.927Z,4.00
2018-07-16T00:38:33.952Z,4.00
2018-07-16T00:39:33.970Z,4.00
2018-07-16T00:40:33.976Z,4.00
2018-07-16T00:41:33.996Z,4.00
2018-07-16T00:42:34.009Z,4.00
2018-07-16T00:43:34.028Z,4.00
2018-07-16T00:44:34.046Z,4.00
2018-07-16T00:45:34.063Z,4.00
2018-07-16T00:46:34.081Z,4.00
2018-07-16T00:47:34.093Z,4.00
2018-07-16T00:48:34.116Z,4.00
2018-07-16T00:49:34.131Z,4.00
2018-07-16T00:50:34.148Z,4.00
2018-07-16T00:51:34.168Z,4.00
2018-07-16T00:52:34.177Z,4.00
2018-07-16T00:53:34.201Z,4.00
2018-07-16T00:54:34.271Z,4.00
2018-07-16T00:55:34.228Z,4.00
2018-07-16T00:56:34.327Z,4.00
2018-07-16T00:57:34.306Z,4.00
2018-07-16T00:58:34.281Z,4.00
2018-07-16T00:59:34.298Z,4.00
2018-07-16T01:00:34.379Z,4.00
2018-07-16T01:01:34.333Z,4.00
2018-07-16T01:02:34.349Z,4.00
2018-07-16T01:03:34.437Z,4.00
2018-07-16T01:04:34.382Z,4.00
2018-07-16T01:05:34.402Z,4.00
2018-07-16T01:06:34.429Z,4.00
2018-07-16T01:07:34.438Z,4.00
2018-07-16T01:08:34.450Z,4.00
2018-07-16T01:09:34.464Z,4.00
2018-07-16T01:10:34.477Z,4.00
2018-07-16T01:11:34.500Z,4.00
2018-07-16T01:12:34.517Z,4.00
2018-07-16T01:13:34.535Z,4.00
2018-07-16T01:14:34.545Z,4.00
2018-07-16T01:15:34.565Z,4.00
2018-07-16T01:16:34.590Z,4.00
2018-07-16T01:17:34.604Z,4.00
2018-07-16T01:18:34.613Z,4.00
2018-07-16T01:19:34.634Z,4.00
2018-07-16T01:20:34.650Z,4.00
2018-07-16T01:21:34.668Z,4.00
2018-07-16T01:22:34.683Z,4.00
2018-07-16T01:23:34.696Z,4.00
2018-07-16T01:24:34.716Z,4.00
2018-07-16T01:25:34.727Z,4.00
2018-07-16T01:26:34.746Z,4.00
2018-07-16T01:27:34.762Z,4.00
2018-07-16T01:28:34.777Z,4.00
2018-07-16T01:29:34.795Z,4.00
2018-07-16T01:30:34.815Z,4.00
2018-07-16T01:31:34.830Z,4.00
2018-07-16T01:32:34.844Z,4.00
2018-07-16T01:33:34.865Z,4.00
2018-07-16T01:34:34.877Z,4.00
2018-07-16T01:35:34.894Z,4.00
2018-07-16T01:36:34.915Z,4.00
2018-07-16T01:37:34.930Z,4.00
2018-07-16T01:38:34.946Z,4.00
2018-07-16T01:39:34.967Z,4.00
2018-07-16T01:40:34.980Z,4.00
2018-07-16T01:41:34.996Z,4.00
2018-07-16T01:42:35.021Z,4.00
2018-07-16T01:43:35.031Z,4.00
2018-07-16T01:44:35.047Z,4.00
2018-07-16T01:45:35.063Z,4.00
2018-07-16T01:46:35.081Z,4.00
2018-07-16T01:47:35.095Z,4.00
2018-07-16T01:48:35.161Z,4.00
2018-07-16T01:49:35.129Z,4.00
2018-07-16T01:50:35.142Z,4.00
2018-07-16T01:51:35.164Z,4.00
2018-07-16T01:52:35.178Z,4.00
2018-07-16T01:53:35.194Z,4.00
2018-07-16T01:54:35.264Z,4.00
2018-07-16T01:55:35.222Z,4.00
2018-07-16T01:56:35.238Z,4.00
2018-07-16T01:57:35.260Z,4.00
2018-07-16T01:58:35.270Z,4.00
2018-07-16T01:59:35.291Z,4.00
2018-07-16T02:00:35.372Z,4.00
2018-07-16T02:01:35.325Z,4.00
2018-07-16T02:02:35.336Z,4.00
2018-07-16T02:03:35.356Z,4.00
2018-07-16T02:04:35.371Z,4.00
2018-07-16T02:05:35.384Z,4.00
2018-07-16T02:06:35.478Z,4.00
2018-07-16T02:07:35.449Z,4.00
2018-07-16T02:08:35.438Z,4.00
2018-07-16T02:09:35.455Z,4.00
2018-07-16T02:10:35.471Z,4.00
2018-07-16T02:11:35.486Z,4.00
2018-07-16T02:12:35.571Z,4.00
2018-07-16T02:13:35.516Z,4.00
2018-07-16T02:14:35.535Z,4.00
2018-07-16T02:15:35.553Z,4.00
2018-07-16T02:16:35.563Z,4.00
2018-07-16T02:17:35.584Z,4.00
2018-07-16T02:18:35.674Z,4.00
2018-07-16T02:19:35.615Z,4.00
2018-07-16T02:20:35.632Z,4.00
2018-07-16T02:21:35.644Z,4.00
2018-07-16T02:22:35.665Z,4.00
2018-07-16T02:23:35.679Z,4.00
2018-07-16T02:24:35.764Z,4.00
2018-07-16T02:25:35.709Z,4.00
2018-07-16T02:26:35.771Z,4.00
2018-07-16T02:27:35.745Z,4.00
2018-07-16T02:28:35.760Z,4.00
2018-07-16T02:29:35.773Z,4.00
2018-07-16T02:30:35.794Z,4.00
2018-07-16T02:31:35.805Z,4.00
2018-07-16T02:32:35.826Z,4.00
2018-07-16T02:33:35.844Z,4.00
2018-07-16T02:34:35.856Z,4.00
2018-07-16T02:35:35.870Z,4.00
2018-07-16T02:36:35.892Z,4.00
2018-07-16T02:37:35.900Z,4.00
2018-07-16T02:38:35.926Z,4.00
2018-07-16T02:39:35.932Z,4.00
2018-07-16T02:40:35.966Z,4.00
2018-07-16T02:41:35.970Z,4.00
2018-07-16T02:42:35.982Z,4.00
2018-07-16T02:43:36.003Z,4.00
2018-07-16T02:44:36.029Z,4.00
2018-07-16T02:45:36.030Z,4.00
2018-07-16T02:46:36.052Z,4.00
2018-07-16T02:47:36.068Z,4.00
2018-07-16T02:48:36.084Z,4.00
2018-07-16T02:49:36.095Z,4.00
2018-07-16T02:50:36.119Z,4.00
2018-07-16T02:51:36.135Z,4.00
2018-07-16T02:52:36.148Z,4.00
2018-07-16T02:53:36.161Z,4.00
2018-07-16T02:54:36.180Z,4.00
2018-07-16T02:55:36.193Z,4.00
2018-07-16T02:56:36.217Z,4.00
2018-07-16T02:57:36.227Z,4.00
2018-07-16T02:58:36.240Z,4.00
2018-07-16T02:59:36.263Z,4.00
2018-07-16T03:00:36.279Z,4.00
2018-07-16T03:01:36.297Z,4.00
2018-07-16T03:02:36.310Z,4.00
2018-07-16T03:04:36.391Z,4.00
2018-07-16T03:05:36.364Z,4.00
2018-07-16T03:06:36.372Z,4.00
2018-07-16T03:07:36.402Z,4.00
2018-07-16T03:08:36.409Z,4.00
2018-07-16T03:09:36.424Z,4.00
2018-07-16T03:10:36.442Z,4.00
2018-07-16T03:11:36.458Z,4.00
2018-07-16T03:12:36.482Z,4.00
2018-07-16T03:13:36.486Z,4.00
2018-07-16T03:14:36.506Z,4.00
2018-07-16T03:15:36.523Z,4.00
2018-07-16T03:16:36.535Z,4.00
2018-07-16T03:17:36.556Z,4.00
2018-07-16T03:18:36.567Z,4.00
2018-07-16T03:19:36.587Z,4.00
2018-07-16T03:20:36.598Z,4.00
2018-07-16T03:21:36.621Z,4.00
2018-07-16T03:22:36.633Z,4.00
2018-07-16T03:23:36.647Z,4.00
2018-07-16T03:24:36.666Z,4.00
2018-07-16T03:25:36.681Z,4.00
2018-07-16T03:26:36.709Z,4.00
2018-07-16T03:27:36.714Z,4.00
2018-07-16T03:28:36.736Z,4.00
2018-07-16T03:29:36.751Z,4.00
2018-07-16T03:30:36.776Z,4.00
2018-07-16T03:31:36.781Z,4.00
2018-07-16T03:32:36.801Z,4.00
2018-07-16T03:33:36.815Z,4.00
2018-07-16T03:34:36.828Z,4.00
2018-07-16T03:35:36.845Z,4.00
2018-07-16T03:36:36.866Z,4.00
2018-07-16T03:37:36.879Z,4.00
2018-07-16T03:38:36.900Z,4.00
2018-07-16T03:39:36.912Z,4.00
2018-07-16T03:40:36.978Z,4.00
2018-07-16T03:41:36.953Z,4.00
2018-07-16T03:42:36.969Z,4.00
2018-07-16T03:43:37.019Z,4.00
2018-07-16T03:44:36.998Z,4.00
2018-07-16T03:45:37.011Z,4.00
2018-07-16T03:46:37.032Z,4.00
2018-07-16T03:47:37.046Z,4.00
2018-07-16T03:48:37.064Z,4.00
2018-07-16T03:49:37.172Z,4.00
2018-07-16T03:50:37.099Z,4.00
2018-07-16T03:51:37.112Z,4.00
2018-07-16T03:52:37.135Z,4.00
2018-07-16T03:53:37.147Z,4.00
2018-07-16T03:54:37.164Z,4.00
2018-07-16T03:55:37.208Z,4.00
2018-07-16T03:56:37.202Z,4.00
2018-07-16T03:57:37.210Z,4.00
2018-07-16T03:58:37.230Z,4.00
2018-07-16T03:59:37.243Z,4.00
2018-07-16T04:00:37.260Z,4.00
2018-07-16T04:01:37.376Z,4.00
2018-07-16T04:02:37.292Z,4.00
2018-07-16T04:03:37.307Z,4.00
2018-07-16T04:04:37.326Z,4.00
2018-07-16T04:05:37.345Z,4.00
2018-07-16T04:06:37.366Z,4.00
2018-07-16T04:07:37.434Z,4.00
2018-07-16T04:08:37.395Z,4.00
2018-07-16T04:09:37.410Z,4.00
2018-07-16T04:10:40.581Z,4.00
2018-07-16T04:11:37.442Z,4.00
2018-07-16T04:12:37.466Z,4.00
2018-07-16T04:13:37.541Z,4.00
2018-07-16T04:14:37.497Z,4.00
2018-07-16T04:15:37.508Z,4.00
2018-07-16T04:16:37.527Z,4.00
2018-07-16T04:17:37.542Z,4.00
2018-07-16T04:18:37.559Z,4.00
2018-07-16T04:19:37.610Z,4.00
2018-07-16T04:20:37.597Z,4.00
2018-07-16T04:21:37.610Z,4.00
2018-07-16T04:22:37.626Z,4.00
2018-07-16T04:23:37.733Z,4.00
2018-07-16T04:24:37.663Z,4.00
2018-07-16T04:25:37.683Z,4.00
2018-07-16T04:26:37.696Z,4.00
2018-07-16T04:27:37.717Z,4.00
2018-07-16T04:28:37.731Z,4.00
2018-07-16T04:29:37.780Z,4.00
2018-07-16T04:30:37.762Z,4.00
2018-07-16T04:31:37.779Z,4.00
2018-07-16T04:32:37.791Z,4.00
2018-07-16T04:33:37.813Z,4.00
2018-07-16T04:34:37.824Z,4.00
2018-07-16T04:35:37.847Z,4.00
2018-07-16T04:36:37.859Z,4.00
2018-07-16T04:37:37.881Z,4.00
2018-07-16T04:38:37.895Z,4.00
2018-07-16T04:39:37.916Z,4.00
2018-07-16T04:40:37.931Z,4.00
2018-07-16T04:41:37.952Z,4.00
2018-07-16T04:42:37.957Z,4.00
2018-07-16T04:43:37.974Z,4.00
2018-07-16T04:44:37.991Z,4.00
2018-07-16T04:45:38.008Z,4.00
2018-07-16T04:46:38.026Z,4.00
2018-07-16T04:47:38.045Z,4.00
2018-07-16T04:48:38.063Z,4.00
2018-07-16T04:49:38.080Z,4.00
2018-07-16T04:50:38.092Z,4.00
2018-07-16T04:51:38.110Z,0.00
2018-07-16T04:52:38.176Z,0.00
2018-07-16T04:53:38.142Z,0.00
2018-07-16T04:54:38.157Z,0.00
2018-07-16T04:55:38.179Z,0.00
2018-07-16T04:56:38.196Z,4.00
2018-07-16T04:57:38.208Z,4.00
2018-07-16T04:58:38.232Z,4.00
2018-07-16T04:59:38.246Z,4.00
2018-07-16T05:00:38.258Z,0.00
2018-07-16T05:01:38.280Z,4.00
2018-07-16T05:02:38.292Z,4.00
2018-07-16T05:03:38.313Z,4.00
2018-07-16T05:04:38.327Z,4.00
2018-07-16T05:05:38.342Z,4.00
2018-07-16T05:06:38.363Z,8.00
2018-07-16T05:07:38.375Z,4.00
2018-07-16T05:08:38.395Z,8.00
2018-07-16T05:09:38.409Z,8.00
2018-07-16T05:10:38.430Z,8.00
2018-07-16T05:11:38.446Z,8.00
2018-07-16T05:12:38.464Z,8.00
2018-07-16T05:13:38.526Z,12.00
2018-07-16T05:14:38.496Z,12.00
2018-07-16T05:15:38.507Z,12.00
2018-07-16T05:16:38.528Z,12.00
2018-07-16T05:17:38.550Z,16.00
2018-07-16T05:18:38.559Z,16.00
2018-07-16T05:19:38.603Z,20.00
2018-07-16T05:20:38.597Z,24.00
2018-07-16T05:21:38.611Z,20.00
2018-07-16T05:22:38.628Z,20.00
2018-07-16T05:23:38.644Z,20.00
2018-07-16T05:24:38.663Z,28.00
2018-07-16T05:25:38.751Z,32.00
2018-07-16T05:26:38.696Z,36.00
2018-07-16T05:27:38.715Z,36.00
2018-07-16T05:28:38.734Z,36.00
2018-07-16T05:29:38.740Z,36.00
2018-07-16T05:30:38.763Z,44.00
2018-07-16T05:31:38.816Z,48.00
2018-07-16T05:32:38.976Z,44.00
2018-07-16T05:33:38.821Z,44.00
2018-07-16T05:34:38.892Z,48.00
2018-07-16T05:35:38.845Z,52.00
2018-07-16T05:36:38.856Z,56.00
2018-07-16T05:37:38.946Z,60.00
2018-07-16T05:38:38.895Z,64.00
2018-07-16T05:39:38.907Z,72.00
2018-07-16T05:40:38.925Z,80.00
2018-07-16T05:41:38.940Z,92.00
2018-07-16T05:42:38.958Z,104.00
2018-07-16T05:43:38.975Z,116.00
2018-07-16T05:44:38.989Z,136.00
2018-07-16T05:45:39.016Z,148.00
2018-07-16T05:46:39.023Z,160.00
2018-07-16T05:47:39.045Z,172.00
2018-07-16T05:48:39.059Z,184.00
2018-07-16T05:49:39.094Z,200.00
2018-07-16T05:50:39.095Z,224.00
2018-07-16T05:51:39.107Z,256.00
2018-07-16T05:52:39.127Z,300.00
2018-07-16T05:53:39.138Z,348.00
2018-07-16T05:54:39.161Z,400.00
2018-07-16T05:55:39.180Z,444.00
2018-07-16T05:56:39.207Z,488.00
2018-07-16T05:57:39.216Z,552.00
2018-07-16T05:58:39.227Z,604.00
2018-07-16T05:59:39.242Z,620.00
2018-07-16T06:00:39.260Z,628.00
2018-07-16T06:01:39.278Z,636.00
2018-07-16T06:02:39.292Z,668.00
2018-07-16T06:03:39.305Z,700.00
2018-07-16T06:04:39.328Z,720.00
2018-07-16T06:05:39.340Z,748.00
2018-07-16T06:06:39.357Z,780.00
2018-07-16T06:07:39.373Z,820.00
2018-07-16T06:08:39.408Z,852.00
2018-07-16T06:09:39.406Z,880.00
2018-07-16T06:10:39.424Z,912.00
2018-07-16T06:11:39.444Z,936.00
2018-07-16T06:12:39.461Z,964.00
2018-07-16T06:13:39.560Z,1000.00
2018-07-16T06:14:39.589Z,1032.00
2018-07-16T06:15:39.518Z,1076.00
2018-07-16T06:16:39.542Z,1104.00
2018-07-16T06:17:39.542Z,1140.00
2018-07-16T06:18:39.561Z,1160.00
2018-07-16T06:19:39.604Z,1196.00
2018-07-16T06:20:39.594Z,1216.00
2018-07-16T06:21:39.607Z,1224.00
2018-07-16T06:22:39.624Z,1192.00
2018-07-16T06:23:39.644Z,1180.00
2018-07-16T06:24:39.658Z,1136.00
2018-07-16T06:25:39.763Z,1208.00
2018-07-16T06:26:39.689Z,1248.00
2018-07-16T06:27:39.707Z,1328.00
2018-07-16T06:28:39.726Z,1424.00
2018-07-16T06:29:39.741Z,1460.00
2018-07-16T06:30:39.760Z,1504.00
2018-07-16T06:31:39.868Z,1568.00
2018-07-16T06:32:39.795Z,1556.00
2018-07-16T06:33:39.809Z,1592.00
2018-07-16T06:34:39.827Z,1620.00
2018-07-16T06:35:39.857Z,1680.00
2018-07-16T06:36:39.859Z,1740.00
2018-07-16T06:37:39.877Z,1804.00
2018-07-16T06:38:39.894Z,1888.00
2018-07-16T06:39:40.048Z,1948.00
2018-07-16T06:40:40.168Z,2064.00
2018-07-16T06:41:39.942Z,2204.00
2018-07-16T06:42:39.958Z,2356.00
2018-07-16T06:43:40.046Z,2576.00
2018-07-16T06:44:39.995Z,2724.00
2018-07-16T06:45:40.009Z,2936.00
2018-07-16T06:46:40.045Z,3204.00
2018-07-16T06:47:40.089Z,3356.00
2018-07-16T06:48:40.065Z,3480.00
2018-07-16T06:49:40.091Z,3664.00
2018-07-16T06:50:40.098Z,3792.00
2018-07-16T06:51:40.111Z,3900.00
2018-07-16T06:52:40.180Z,3976.00
2018-07-16T06:53:40.143Z,4212.00
2018-07-16T06:54:40.164Z,4268.00
2018-07-16T06:55:40.181Z,3936.00
2018-07-16T06:56:40.198Z,4364.00
2018-07-16T06:57:40.222Z,4516.00
2018-07-16T06:58:40.228Z,4536.00
2018-07-16T06:59:40.247Z,4556.00
2018-07-16T07:00:40.265Z,4732.00
2018-07-16T07:01:40.281Z,4556.00
2018-07-16T07:02:40.298Z,4428.00
2018-07-16T07:03:40.316Z,5004.00
2018-07-16T07:04:40.340Z,4988.00
2018-07-16T07:05:40.350Z,5092.00
2018-07-16T07:06:40.370Z,5312.00
2018-07-16T07:07:40.448Z,5348.00
2018-07-16T07:08:40.401Z,5316.00
2018-07-16T07:09:40.421Z,5508.00
2018-07-16T07:10:40.447Z,5460.00
2018-07-16T07:11:40.458Z,5568.00
2018-07-16T07:12:40.478Z,5616.00
2018-07-16T07:13:40.546Z,5600.00
2018-07-16T07:14:40.512Z,5772.00
2018-07-16T07:15:40.529Z,5952.00
2018-07-16T07:16:40.608Z,5948.00
2018-07-16T07:17:40.564Z,6024.00
2018-07-16T07:18:40.578Z,6076.00
2018-07-16T07:19:40.613Z,6188.00
2018-07-16T07:20:40.615Z,6240.00
2018-07-16T07:21:40.635Z,6276.00
2018-07-16T07:22:40.658Z,6336.00
2018-07-16T07:23:40.671Z,6396.00
2018-07-16T07:24:40.689Z,6440.00
2018-07-16T07:25:40.765Z,6556.00
2018-07-16T07:26:40.722Z,6540.00
2018-07-16T07:27:40.740Z,6744.00
2018-07-16T07:28:40.758Z,6724.00
2018-07-16T07:29:40.777Z,6800.00
2018-07-16T07:30:40.799Z,6768.00
2018-07-16T07:31:40.811Z,6668.00
2018-07-16T07:32:40.831Z,6920.00
2018-07-16T07:33:40.848Z,6956.00
2018-07-16T07:34:40.864Z,7068.00
2018-07-16T07:35:40.903Z,7104.00
2018-07-16T07:36:40.902Z,7128.00
2018-07-16T07:37:40.927Z,7272.00
2018-07-16T07:38:40.943Z,7484.00
2018-07-16T07:39:40.958Z,7632.00
2018-07-16T07:40:40.976Z,7696.00
2018-07-16T07:41:40.998Z,7384.00
2018-07-16T07:42:41.012Z,7832.00
2018-07-16T07:43:41.035Z,7776.00
2018-07-16T07:44:41.049Z,4324.00
2018-07-16T07:45:41.069Z,6900.00
2018-07-16T07:46:41.095Z,7864.00
2018-07-16T07:47:41.162Z,8480.00
2018-07-16T07:48:41.123Z,8904.00
2018-07-16T07:49:41.149Z,9476.00
2018-07-16T07:50:41.160Z,4624.00
2018-07-16T07:51:41.181Z,9476.00
2018-07-16T07:52:41.200Z,9520.00
2018-07-16T07:53:41.220Z,10076.00
2018-07-16T07:54:41.463Z,8160.00
2018-07-16T07:55:41.341Z,4208.00
2018-07-16T07:56:41.275Z,2952.00
2018-07-16T07:57:41.293Z,2488.00
2018-07-16T07:58:41.318Z,2420.00
2018-07-16T07:59:41.336Z,2964.00
2018-07-16T08:00:41.352Z,4016.00
2018-07-16T08:01:41.374Z,4580.00
2018-07-16T08:02:41.392Z,3068.00
2018-07-16T08:03:41.419Z,2712.00
2018-07-16T08:04:41.428Z,2440.00
2018-07-16T08:05:41.450Z,2568.00
2018-07-16T08:06:41.464Z,4500.00
2018-07-16T08:07:41.486Z,4876.00
2018-07-16T08:08:41.503Z,3036.00
2018-07-16T08:09:41.526Z,3024.00
2018-07-16T08:10:41.544Z,3436.00
2018-07-16T08:11:41.562Z,3532.00
2018-07-16T08:12:41.578Z,4576.00
2018-07-16T08:13:41.626Z,5700.00
2018-07-16T08:14:41.617Z,3236.00
2018-07-16T08:15:41.637Z,2836.00
2018-07-16T08:16:41.657Z,2568.00
2018-07-16T08:17:41.671Z,5880.00
2018-07-16T08:18:41.689Z,8740.00
2018-07-16T08:19:41.713Z,10048.00
2018-07-16T08:20:41.731Z,7564.00
2018-07-16T08:21:41.745Z,11548.00
2018-07-16T08:22:41.968Z,5988.00
2018-07-16T08:23:41.784Z,7692.00
2018-07-16T08:24:41.800Z,5056.00
2018-07-16T08:25:41.827Z,9344.00
2018-07-16T08:26:41.842Z,7440.00
2018-07-16T08:27:41.856Z,11960.00
2018-07-16T08:28:41.875Z,12452.00
2018-07-16T08:29:41.894Z,12048.00
2018-07-16T08:30:41.912Z,11916.00
2018-07-16T08:31:41.940Z,12052.00
2018-07-16T08:32:41.956Z,12096.00
2018-07-16T08:33:42.047Z,12448.00
2018-07-16T08:34:41.994Z,7148.00
2018-07-16T08:35:42.017Z,5400.00
2018-07-16T08:36:42.033Z,4964.00
2018-07-16T08:37:42.049Z,7544.00
2018-07-16T08:38:42.067Z,10908.00
2018-07-16T08:39:42.092Z,4504.00
2018-07-16T08:40:42.111Z,3616.00
2018-07-16T08:41:42.129Z,3256.00
2018-07-16T08:42:42.144Z,3164.00
2018-07-16T08:43:42.165Z,3304.00
2018-07-16T08:44:42.186Z,4040.00
2018-07-16T08:45:42.209Z,3608.00
2018-07-16T08:46:42.225Z,3280.00
2018-07-16T08:47:42.247Z,3212.00
2018-07-16T08:48:42.262Z,3652.00
2018-07-16T08:49:42.288Z,6136.00
2018-07-16T08:50:42.302Z,4056.00
2018-07-16T08:51:42.329Z,4296.00
2018-07-16T08:52:42.402Z,4444.00
2018-07-16T08:53:42.362Z,4916.00
2018-07-16T08:54:42.434Z,5336.00
2018-07-16T08:55:42.402Z,5632.00
2018-07-16T08:56:42.424Z,7724.00
2018-07-16T08:57:42.445Z,7740.00
2018-07-16T08:58:42.459Z,4836.00
2018-07-16T08:59:42.484Z,4436.00
2018-07-16T09:00:42.503Z,4340.00
2018-07-16T09:01:42.518Z,4280.00
2018-07-16T09:02:42.547Z,4280.00
2018-07-16T09:03:42.611Z,4796.00
2018-07-16T09:04:42.581Z,4936.00
2018-07-16T09:05:42.598Z,4552.00
2018-07-16T09:06:42.620Z,4384.00
2018-07-16T09:07:42.649Z,4352.00
2018-07-16T09:08:42.669Z,4324.00
2018-07-16T09:09:42.737Z,4188.00
2018-07-16T09:10:42.700Z,3932.00
2018-07-16T09:11:42.716Z,3812.00
2018-07-16T09:12:42.731Z,3768.00
2018-07-16T09:13:42.763Z,3848.00
2018-07-16T09:14:42.771Z,3920.00
2018-07-16T09:15:42.787Z,4068.00
2018-07-16T09:16:42.827Z,4260.00
2018-07-16T09:17:42.832Z,4352.00
2018-07-16T09:18:42.846Z,4576.00
2018-07-16T09:19:42.895Z,5644.00
2018-07-16T09:20:42.889Z,10972.00
2018-07-16T09:21:42.903Z,13156.00
2018-07-16T09:22:42.926Z,13452.00
2018-07-16T09:23:42.941Z,12804.00
2018-07-16T09:24:42.968Z,13028.00
2018-07-16T09:25:42.981Z,13048.00
2018-07-16T09:26:43.005Z,13160.00
2018-07-16T09:27:43.079Z,12832.00
2018-07-16T09:28:43.044Z,13004.00
2018-07-16T09:29:43.065Z,13492.00
2018-07-16T09:30:43.082Z,13444.00
2018-07-16T09:31:43.105Z,13276.00
2018-07-16T09:32:43.158Z,13652.00
2018-07-16T09:33:43.146Z,11600.00
2018-07-16T09:34:43.160Z,6444.00
2018-07-16T09:35:43.190Z,11940.00
2018-07-16T09:36:43.208Z,6264.00
2018-07-16T09:37:43.222Z,5668.00
2018-07-16T09:38:43.241Z,6980.00
2018-07-16T09:39:43.268Z,14880.00
2018-07-16T09:40:43.288Z,15200.00
2018-07-16T09:41:43.320Z,14816.00
2018-07-16T09:42:43.326Z,14392.00
2018-07-16T09:43:43.346Z,10636.00
2018-07-16T09:44:43.418Z,5988.00
2018-07-16T09:45:43.386Z,6184.00
2018-07-16T09:46:43.415Z,4996.00
2018-07-16T09:47:43.437Z,6120.00
2018-07-16T09:48:43.447Z,8396.00
2018-07-16T09:49:43.468Z,10784.00
2018-07-16T09:50:43.541Z,8780.00
2018-07-16T09:51:43.514Z,9140.00
2018-07-16T09:52:43.530Z,10840.00
2018-07-16T09:53:43.552Z,10864.00
2018-07-16T09:54:43.572Z,7252.00
2018-07-16T09:55:43.595Z,7140.00
2018-07-16T09:56:43.658Z,7696.00
2018-07-16T09:57:43.639Z,8144.00
2018-07-16T09:58:43.655Z,7396.00
2018-07-16T09:59:43.677Z,7796.00
2018-07-16T10:00:43.698Z,9040.00
2018-07-16T10:01:43.725Z,10384.00
2018-07-16T10:02:43.858Z,9288.00
2018-07-16T10:03:43.758Z,10164.00
2018-07-16T10:04:43.780Z,8768.00
2018-07-16T10:05:43.801Z,8860.00
2018-07-16T10:06:43.825Z,10108.00
2018-07-16T10:07:43.846Z,16768.00
2018-07-16T10:08:43.952Z,16384.00
2018-07-16T10:09:43.884Z,16256.00
2018-07-16T10:10:43.910Z,15488.00
2018-07-16T10:11:43.932Z,14508.00
2018-07-16T10:12:43.952Z,14816.00
2018-07-16T10:13:43.978Z,15104.00
2018-07-16T10:14:44.056Z,15168.00
2018-07-16T10:15:44.017Z,15168.00
2018-07-16T10:16:44.034Z,15584.00
2018-07-16T10:17:44.060Z,16032.00
2018-07-16T10:18:44.075Z,14440.00
2018-07-16T10:19:44.098Z,17376.00
2018-07-16T10:20:44.159Z,18048.00
2018-07-16T10:21:44.148Z,7620.00
2018-07-16T10:22:44.168Z,6908.00
2018-07-16T10:23:44.186Z,5936.00
2018-07-16T10:24:44.215Z,5740.00
2018-07-16T10:25:44.275Z,5760.00
2018-07-16T10:26:44.252Z,6004.00
2018-07-16T10:27:44.277Z,6380.00
2018-07-16T10:28:44.302Z,8212.00
2018-07-16T10:29:44.317Z,15424.00
2018-07-16T10:30:44.341Z,12620.00
2018-07-16T10:31:44.362Z,17600.00
2018-07-16T10:32:44.383Z,12760.00
2018-07-16T10:33:44.455Z,12212.00
2018-07-16T10:34:44.427Z,9416.00
2018-07-16T10:35:44.452Z,13676.00
2018-07-16T10:36:44.476Z,17664.00
2018-07-16T10:37:44.496Z,9464.00
2018-07-16T10:38:44.514Z,13212.00
2018-07-16T10:39:44.552Z,7804.00
2018-07-16T10:40:44.564Z,7436.00
2018-07-16T10:41:44.585Z,7136.00
2018-07-16T10:42:44.606Z,7004.00
2018-07-16T10:43:44.623Z,6824.00
2018-07-16T10:44:44.701Z,7108.00
2018-07-16T10:45:44.704Z,6592.00
2018-07-16T10:46:44.699Z,6636.00
2018-07-16T10:47:44.719Z,7676.00
2018-07-16T10:48:44.736Z,9120.00
2018-07-16T10:49:44.808Z,8200.00
2018-07-16T10:50:44.847Z,7236.00
2018-07-16T10:51:44.870Z,6868.00
2018-07-16T10:52:45.026Z,6868.00
2018-07-16T10:53:44.848Z,7440.00
2018-07-16T10:55:44.890Z,17664.00
2018-07-16T10:56:44.916Z,10356.00
2018-07-16T10:57:44.934Z,8992.00
2018-07-16T10:58:44.953Z,17472.00
2018-07-16T10:59:44.975Z,10492.00
2018-07-16T11:00:44.997Z,13528.00
2018-07-16T11:01:45.017Z,11008.00
2018-07-16T11:02:45.042Z,8984.00
2018-07-16T11:03:45.077Z,8356.00
2018-07-16T11:04:45.090Z,8672.00
2018-07-16T11:05:45.101Z,9464.00
2018-07-16T11:06:45.124Z,8272.00
2018-07-16T11:07:45.144Z,8096.00
2018-07-16T11:08:45.167Z,8260.00
2018-07-16T11:09:45.218Z,10036.00
2018-07-16T11:10:45.213Z,13000.00
2018-07-16T11:11:45.235Z,10168.00
2018-07-16T11:12:45.255Z,9580.00
2018-07-16T11:13:45.275Z,10972.00
2018-07-16T11:14:45.294Z,9152.00
2018-07-16T11:15:45.333Z,10416.00
2018-07-16T11:16:45.342Z,8356.00
2018-07-16T11:17:45.364Z,9476.00
2018-07-16T11:18:45.382Z,7416.00
2018-07-16T11:19:45.410Z,7172.00
2018-07-16T11:20:45.503Z,7340.00
2018-07-16T11:21:45.454Z,7812.00
2018-07-16T11:22:45.471Z,8892.00
2018-07-16T11:23:45.493Z,8296.00
2018-07-16T11:24:45.510Z,7784.00
2018-07-16T11:25:45.531Z,8708.00
2018-07-16T11:26:45.558Z,18624.00
2018-07-16T11:27:45.575Z,17600.00
2018-07-16T11:28:45.602Z,12768.00
2018-07-16T11:29:45.626Z,18304.00
2018-07-16T11:30:45.645Z,13624.00
2018-07-16T11:31:45.666Z,9120.00
2018-07-16T11:32:45.685Z,7332.00
2018-07-16T11:33:45.708Z,7364.00
2018-07-16T11:34:45.730Z,11836.00
2018-07-16T11:35:45.824Z,9728.00
2018-07-16T11:36:45.771Z,9348.00
2018-07-16T11:37:45.797Z,10424.00
2018-07-16T11:38:45.870Z,8368.00
2018-07-16T11:39:45.838Z,8764.00
2018-07-16T11:40:45.860Z,9296.00
2018-07-16T11:41:45.882Z,13916.00
2018-07-16T11:42:45.898Z,6860.00
2018-07-16T11:43:45.930Z,6208.00
2018-07-16T11:44:46.000Z,16928.00
2018-07-16T11:45:45.970Z,16864.00
2018-07-16T11:46:45.990Z,16864.00
2018-07-16T11:47:46.012Z,16960.00
2018-07-16T11:48:46.031Z,16672.00
2018-07-16T11:49:46.057Z,10420.00
2018-07-16T11:50:46.073Z,16576.00
2018-07-16T11:51:46.185Z,16064.00
2018-07-16T11:52:46.120Z,16064.00
2018-07-16T11:53:46.197Z,16416.00
2018-07-16T11:54:46.165Z,16256.00
2018-07-16T11:55:46.187Z,16512.00
2018-07-16T11:56:46.213Z,16640.00
2018-07-16T11:57:46.254Z,16288.00
2018-07-16T11:58:46.257Z,16960.00
2018-07-16T11:59:46.275Z,16736.00
2018-07-16T12:00:46.297Z,16224.00
2018-07-16T12:01:46.387Z,16096.00
2018-07-16T12:02:46.347Z,16000.00
2018-07-16T12:03:46.411Z,15744.00
2018-07-16T12:04:46.394Z,15744.00
2018-07-16T12:05:46.412Z,15456.00
2018-07-16T12:06:46.435Z,15872.00
2018-07-16T12:07:46.463Z,15616.00
2018-07-16T12:08:46.484Z,15904.00
2018-07-16T12:09:46.574Z,16192.00
2018-07-16T12:10:46.527Z,15936.00
2018-07-16T12:11:46.552Z,16448.00
2018-07-16T12:12:46.683Z,16896.00
2018-07-16T12:13:46.599Z,17088.00
2018-07-16T12:14:46.627Z,17152.00
2018-07-16T12:15:46.658Z,8020.00
2018-07-16T12:16:46.667Z,5692.00
2018-07-16T12:17:46.697Z,5924.00
2018-07-16T12:18:46.713Z,7824.00
2018-07-16T12:19:46.738Z,16256.00
2018-07-16T12:20:46.766Z,15936.00
2018-07-16T12:21:46.838Z,15904.00
2018-07-16T12:22:46.808Z,15776.00
2018-07-16T12:23:46.835Z,15360.00
2018-07-16T12:24:46.859Z,15456.00
2018-07-16T12:25:46.949Z,15168.00
2018-07-16T12:26:46.906Z,15168.00
2018-07-16T12:27:46.994Z,15232.00
2018-07-16T12:28:46.956Z,15072.00
2018-07-16T12:29:46.976Z,15232.00
2018-07-16T12:30:46.998Z,15072.00
2018-07-16T12:31:47.070Z,15232.00
2018-07-16T12:32:47.095Z,13892.00
2018-07-16T12:33:47.114Z,15136.00
2018-07-16T12:34:47.093Z,8052.00
2018-07-16T12:35:47.122Z,15072.00